Time;durP1;ratioP1;P1;durP2;ratioP2;P2;SDS_P1;SDS_P2;PMS_P1;PMS_P2;Temp;Humidity;BMP_temperature;BMP_pressure;BME280_temperature;BME280_humidity;BME280_pressure;Samples;Min_cycle;Max_cycle;Signal;HPM_P1;HPM_P2
2024/01/21 00:00:38;;;;;;;;;;;19.60;41.40;;;;;;5065754;28;19983;-56
2024/01/21 00:03:05;;;;;;;;;;;19.60;41.40;;;;;;5040172;28;19928;-52
2024/01/21 00:05:33;;;;;;;;;;;19.60;41.40;;;;;;5055939;28;19983;-56
2024/01/21 00:08:04;;;;;;;;;;;19.50;41.30;;;;;;5042572;28;19927;-56
2024/01/21 00:10:33;;;;;;;;;;;19.60;41.40;;;;;;5058327;28;20300;-55
2024/01/21 00:13:00;;;;;;;;;;;19.60;41.40;;;;;;5074140;28;19942;-53
2024/01/21 00:15:27;;;;;;;;;;;19.50;41.30;;;;;;5056873;28;19920;-57
2024/01/21 00:17:53;;;;;;;;;;;19.50;41.30;;;;;;5056736;28;19927;-55
2024/01/21 00:20:20;;;;;;;;;;;19.50;41.30;;;;;;5075690;28;19920;-56
2024/01/21 00:22:47;;;;;;;;;;;19.50;41.30;;;;;;5055866;28;19927;-55
2024/01/21 00:25:15;;;;;;;;;;;19.50;41.20;;;;;;5059625;28;19920;-57
2024/01/21 00:27:42;;;;;;;;;;;19.50;41.20;;;;;;5066785;28;19928;-57
2024/01/21 00:30:10;;;;;;;;;;;19.50;41.20;;;;;;5056306;28;19927;-56
2024/01/21 00:32:36;;;;;;;;;;;19.50;41.20;;;;;;5040045;28;20297;-56
2024/01/21 00:35:04;;;;;;;;;;;19.50;41.20;;;;;;5058115;28;19920;-55
2024/01/21 00:37:31;;;;;;;;;;;19.50;41.20;;;;;;5058103;28;19926;-55
2024/01/21 00:39:58;;;;;;;;;;;19.50;41.20;;;;;;5056685;28;19924;-56
2024/01/21 00:42:27;;;;;;;;;;;19.50;41.20;;;;;;5075492;28;19920;-57
2024/01/21 00:44:54;;;;;;;;;;;19.40;41.00;;;;;;5075462;28;20081;-57
2024/01/21 00:47:21;;;;;;;;;;;19.40;41.00;;;;;;5057178;28;19926;-57
2024/01/21 00:49:48;;;;;;;;;;;19.40;41.00;;;;;;5045873;28;19931;-56
2024/01/21 00:52:17;;;;;;;;;;;19.50;41.10;;;;;;5034315;28;19921;-55
2024/01/21 00:54:46;;;;;;;;;;;19.40;40.90;;;;;;5073289;28;19924;-53
2024/01/21 00:57:13;;;;;;;;;;;19.40;40.90;;;;;;5065964;28;19921;-56
2024/01/21 00:59:42;;;;;;;;;;;19.40;40.90;;;;;;5040172;28;19921;-56
2024/01/21 01:02:09;;;;;;;;;;;19.40;40.90;;;;;;5065073;28;19920;-55
2024/01/21 01:04:37;;;;;;;;;;;19.40;40.90;;;;;;5057188;28;19973;-52
2024/01/21 01:07:04;;;;;;;;;;;19.40;40.90;;;;;;5056746;28;20324;-56
2024/01/21 01:09:31;;;;;;;;;;;19.40;40.90;;;;;;5058410;28;19920;-54
2024/01/21 01:11:58;;;;;;;;;;;19.40;40.90;;;;;;5074948;28;19924;-55
2024/01/21 01:14:26;;;;;;;;;;;19.40;40.90;;;;;;5055482;28;19943;-57
2024/01/21 01:16:55;;;;;;;;;;;19.40;40.90;;;;;;5056722;28;19921;-55
2024/01/21 01:19:22;;;;;;;;;;;19.40;40.90;;;;;;5056095;28;20008;-56
2024/01/21 01:21:51;;;;;;;;;;;19.40;40.90;;;;;;5073482;28;20015;-60
2024/01/21 01:24:19;;;;;;;;;;;19.40;40.90;;;;;;5041559;28;19927;-55
2024/01/21 01:26:46;;;;;;;;;;;19.40;41.00;;;;;;5071054;28;19920;-56
2024/01/21 01:29:13;;;;;;;;;;;19.40;41.00;;;;;;5074162;28;19950;-56
2024/01/21 01:31:40;;;;;;;;;;;19.40;41.00;;;;;;5056185;28;19920;-55
2024/01/21 01:34:08;;;;;;;;;;;19.40;41.00;;;;;;5039048;28;19921;-55
2024/01/21 01:36:35;;;;;;;;;;;19.40;40.90;;;;;;5056916;28;19942;-55
2024/01/21 01:39:02;;;;;;;;;;;19.40;41.00;;;;;;5058518;28;19927;-54
2024/01/21 01:41:28;;;;;;;;;;;19.30;40.90;;;;;;5061467;28;19924;-54
2024/01/21 01:43:57;;;;;;;;;;;19.40;41.00;;;;;;5073167;28;19974;-53
2024/01/21 01:46:24;;;;;;;;;;;19.40;41.00;;;;;;5059030;28;19921;-56
2024/01/21 01:48:52;;;;;;;;;;;19.40;41.00;;;;;;5048112;28;19921;-57
2024/01/21 01:51:20;;;;;;;;;;;19.40;41.00;;;;;;5021270;28;19925;-54
2024/01/21 01:53:47;;;;;;;;;;;19.40;41.00;;;;;;5034815;28;19921;-56
2024/01/21 01:56:14;;;;;;;;;;;19.40;41.00;;;;;;5054225;28;19920;-56
2024/01/21 01:58:42;;;;;;;;;;;19.40;41.00;;;;;;5030676;28;19921;-57
2024/01/21 02:01:09;;;;;;;;;;;19.40;41.00;;;;;;5075726;28;19958;-55
2024/01/21 02:03:38;;;;;;;;;;;19.40;41.00;;;;;;5036716;28;20270;-55
2024/01/21 02:06:05;;;;;;;;;;;19.40;41.10;;;;;;5037451;28;19998;-56
2024/01/21 02:08:33;;;;;;;;;;;19.40;41.10;;;;;;5052779;28;19936;-57
2024/01/21 02:11:00;;;;;;;;;;;19.40;41.00;;;;;;5039120;28;19969;-55
2024/01/21 02:13:28;;;;;;;;;;;19.30;40.90;;;;;;5073545;28;19920;-55
2024/01/21 02:15:56;;;;;;;;;;;19.40;41.00;;;;;;5072265;28;19920;-55
2024/01/21 02:18:23;;;;;;;;;;;19.30;40.90;;;;;;5056608;28;19921;-56
2024/01/21 02:20:50;;;;;;;;;;;19.40;41.00;;;;;;5024714;28;19920;-55
2024/01/21 02:23:19;;;;;;;;;;;19.40;40.90;;;;;;5075359;28;19920;-56
2024/01/21 02:25:46;;;;;;;;;;;19.30;40.90;;;;;;5054848;28;20007;-54
2024/01/21 02:28:13;;;;;;;;;;;19.30;40.80;;;;;;5056594;28;19921;-55
2024/01/21 02:30:42;;;;;;;;;;;19.30;40.80;;;;;;5057192;28;19928;-57
2024/01/21 02:33:09;;;;;;;;;;;19.30;40.80;;;;;;5055498;28;19921;-57
2024/01/21 02:35:37;;;;;;;;;;;19.30;40.70;;;;;;5053226;28;19946;-55
2024/01/21 02:38:07;;;;;;;;;;;19.30;40.70;;;;;;5057066;28;19920;-57
2024/01/21 02:40:35;;;;;;;;;;;19.30;40.70;;;;;;5055702;28;19920;-56
2024/01/21 02:43:03;;;;;;;;;;;19.30;40.60;;;;;;5056518;28;19928;-56
2024/01/21 02:45:30;;;;;;;;;;;19.30;41.20;;;;;;5059921;28;19921;-56
2024/01/21 02:47:57;;;;;;;;;;;19.30;40.60;;;;;;5077255;28;19986;-56
2024/01/21 02:50:24;;;;;;;;;;;19.30;40.60;;;;;;5060046;28;20423;-54
2024/01/21 02:52:51;;;;;;;;;;;19.30;40.60;;;;;;5057160;28;19920;-56
2024/01/21 02:55:18;;;;;;;;;;;19.30;40.60;;;;;;5056857;28;19921;-57
2024/01/21 02:57:46;;;;;;;;;;;19.30;40.50;;;;;;5059268;28;19927;-56
2024/01/21 03:00:17;;;;;;;;;;;19.30;40.50;;;;;;5070250;28;19921;-57
2024/01/21 03:02:44;;;;;;;;;;;19.30;40.50;;;;;;5095422;28;19986;-57
2024/01/21 03:05:12;;;;;;;;;;;19.30;40.50;;;;;;5078594;28;19928;-57
2024/01/21 03:07:38;;;;;;;;;;;19.30;41.10;;;;;;5067794;28;20018;-56
2024/01/21 03:10:06;;;;;;;;;;;19.30;40.60;;;;;;5057092;28;19931;-57
2024/01/21 03:12:35;;;;;;;;;;;19.30;40.60;;;;;;5076675;28;19959;-57
2024/01/21 03:15:03;;;;;;;;;;;19.30;40.60;;;;;;5081877;28;19952;-58
2024/01/21 03:17:30;;;;;;;;;;;19.30;40.60;;;;;;5060309;28;19931;-56
2024/01/21 03:19:58;;;;;;;;;;;19.30;40.70;;;;;;5078713;28;19925;-54
2024/01/21 03:22:24;;;;;;;;;;;19.30;40.70;;;;;;5066185;28;19924;-55
2024/01/21 03:24:52;;;;;;;;;;;19.30;41.30;;;;;;5075196;28;19920;-55
2024/01/21 03:27:18;;;;;;;;;;;19.30;40.80;;;;;;5069165;28;19931;-56
2024/01/21 03:29:45;;;;;;;;;;;19.30;40.70;;;;;;5061589;28;20002;-57
2024/01/21 03:32:13;;;;;;;;;;;19.30;40.80;;;;;;5057801;28;19935;-57
2024/01/21 03:34:43;;;;;;;;;;;19.30;40.80;;;;;;5062936;28;19920;-57
2024/01/21 03:37:09;;;;;;;;;;;19.30;40.80;;;;;;5079922;28;19925;-58
2024/01/21 03:39:36;;;;;;;;;;;19.30;40.80;;;;;;5066645;28;19924;-56
2024/01/21 03:42:03;;;;;;;;;;;19.30;40.80;;;;;;5077162;28;19920;-55
2024/01/21 03:44:31;;;;;;;;;;;19.30;40.80;;;;;;5064389;28;19928;-58
2024/01/21 03:47:00;;;;;;;;;;;19.30;40.90;;;;;;5057501;28;19920;-58
2024/01/21 03:49:30;;;;;;;;;;;19.30;40.90;;;;;;5064313;28;20922;-57
2024/01/21 03:51:57;;;;;;;;;;;19.30;40.90;;;;;;5075841;28;19921;-58
2024/01/21 03:54:23;;;;;;;;;;;19.30;40.90;;;;;;5076748;28;19929;-58
2024/01/21 03:56:50;;;;;;;;;;;19.30;40.90;;;;;;5078651;28;19924;-57
2024/01/21 03:59:18;;;;;;;;;;;19.30;40.90;;;;;;5077699;28;19994;-57
2024/01/21 04:01:45;;;;;;;;;;;19.30;40.90;;;;;;5068924;28;19927;-58
2024/01/21 04:04:12;;;;;;;;;;;19.30;40.90;;;;;;5084426;28;19920;-58
2024/01/21 04:06:41;;;;;;;;;;;19.30;40.90;;;;;;5044624;28;20002;-57
2024/01/21 04:09:09;;;;;;;;;;;19.30;40.90;;;;;;5042008;28;19924;-57
2024/01/21 04:11:36;;;;;;;;;;;19.30;40.90;;;;;;5066951;28;19993;-58
2024/01/21 04:14:03;;;;;;;;;;;19.30;40.90;;;;;;5056736;28;19928;-57
2024/01/21 04:16:30;;;;;;;;;;;19.20;40.80;;;;;;5058854;28;19928;-56
2024/01/21 04:18:57;;;;;;;;;;;19.30;40.90;;;;;;5072542;28;19921;-58
2024/01/21 04:21:25;;;;;;;;;;;19.30;40.80;;;;;;5058675;28;19991;-57
2024/01/21 04:23:54;;;;;;;;;;;19.30;40.80;;;;;;5068242;28;19920;-58
2024/01/21 04:26:21;;;;;;;;;;;19.30;40.70;;;;;;5061281;28;19924;-56
2024/01/21 04:28:48;;;;;;;;;;;19.20;40.60;;;;;;5066561;28;19927;-56
2024/01/21 04:31:14;;;;;;;;;;;19.30;40.70;;;;;;5085877;28;20332;-57
2024/01/21 04:33:41;;;;;;;;;;;19.20;40.60;;;;;;5062862;28;19920;-58
2024/01/21 04:36:08;;;;;;;;;;;19.30;40.70;;;;;;5079803;28;20311;-56
2024/01/21 04:38:35;;;;;;;;;;;19.30;40.60;;;;;;5064824;28;19920;-56
2024/01/21 04:41:03;;;;;;;;;;;19.30;40.60;;;;;;5084741;28;19921;-58
2024/01/21 04:43:30;;;;;;;;;;;19.20;40.50;;;;;;5066263;28;19924;-57
2024/01/21 04:45:57;;;;;;;;;;;19.30;40.50;;;;;;5065735;28;19973;-57
2024/01/21 04:48:23;;;;;;;;;;;19.20;40.50;;;;;;5062982;28;19973;-56
2024/01/21 04:50:50;;;;;;;;;;;19.20;40.50;;;;;;5060984;28;19952;-58
2024/01/21 04:53:17;;;;;;;;;;;19.20;40.50;;;;;;5064661;28;19928;-56
2024/01/21 04:55:44;;;;;;;;;;;19.20;40.50;;;;;;5080818;28;19928;-57
2024/01/21 04:58:12;;;;;;;;;;;19.20;40.40;;;;;;5080279;28;19931;-57
2024/01/21 05:00:39;;;;;;;;;;;19.20;40.40;;;;;;5081848;28;19920;-55
2024/01/21 05:03:06;;;;;;;;;;;19.20;40.40;;;;;;5079453;28;19924;-55
2024/01/21 05:05:33;;;;;;;;;;;19.20;40.40;;;;;;5081022;28;19921;-57
2024/01/21 05:08:02;;;;;;;;;;;19.20;40.40;;;;;;5079059;28;19986;-55
2024/01/21 05:10:29;;;;;;;;;;;19.20;40.40;;;;;;5063118;28;19970;-54
2024/01/21 05:12:56;;;;;;;;;;;19.20;40.40;;;;;;5061379;28;19979;-54
2024/01/21 05:15:24;;;;;;;;;;;19.20;40.50;;;;;;5059564;28;19932;-56
2024/01/21 05:17:52;;;;;;;;;;;19.20;40.50;;;;;;5086485;28;19942;-56
2024/01/21 05:20:20;;;;;;;;;;;19.20;40.50;;;;;;5080995;28;19920;-56
2024/01/21 05:22:47;;;;;;;;;;;19.20;40.50;;;;;;5046708;28;19921;-57
2024/01/21 05:25:13;;;;;;;;;;;19.20;40.60;;;;;;5064928;28;19924;-55
2024/01/21 05:27:40;;;;;;;;;;;19.20;40.60;;;;;;5080362;28;19928;-56
2024/01/21 05:30:07;;;;;;;;;;;19.20;40.60;;;;;;5042177;28;19948;-54
2024/01/21 05:32:35;;;;;;;;;;;19.20;40.60;;;;;;5058380;28;19924;-56
2024/01/21 05:35:02;;;;;;;;;;;19.20;40.60;;;;;;5064436;28;19943;-58
2024/01/21 05:37:29;;;;;;;;;;;19.20;40.60;;;;;;5061300;28;19920;-57
2024/01/21 05:39:56;;;;;;;;;;;19.20;40.60;;;;;;5082848;28;19980;-57
2024/01/21 05:42:23;;;;;;;;;;;19.20;40.60;;;;;;5016636;28;19925;-58
2024/01/21 05:44:49;;;;;;;;;;;19.20;40.60;;;;;;5033515;28;20506;-54
2024/01/21 05:47:16;;;;;;;;;;;19.20;40.60;;;;;;5071857;28;19925;-57
2024/01/21 05:49:44;;;;;;;;;;;19.20;40.70;;;;;;5037411;28;19924;-56
2024/01/21 05:52:11;;;;;;;;;;;19.20;40.70;;;;;;5071557;28;19924;-55
2024/01/21 05:54:39;;;;;;;;;;;19.20;40.70;;;;;;5054065;28;19924;-55
2024/01/21 05:57:06;;;;;;;;;;;19.20;40.70;;;;;;5071656;28;19931;-57
2024/01/21 05:59:33;;;;;;;;;;;19.20;40.70;;;;;;5071462;28;19921;-58
2024/01/21 06:02:00;;;;;;;;;;;19.20;40.70;;;;;;5050287;28;19925;-57
2024/01/21 06:04:26;;;;;;;;;;;19.20;40.70;;;;;;5057581;28;19927;-58
2024/01/21 06:06:55;;;;;;;;;;;19.20;40.70;;;;;;5033978;28;19950;-58
2024/01/21 06:09:21;;;;;;;;;;;19.20;40.70;;;;;;5045745;28;20095;-58
2024/01/21 06:11:48;;;;;;;;;;;19.20;40.70;;;;;;5053789;28;19974;-57
2024/01/21 06:14:15;;;;;;;;;;;19.20;40.70;;;;;;5071117;28;19927;-57
2024/01/21 06:16:41;;;;;;;;;;;19.20;40.70;;;;;;5056652;28;19932;-57
2024/01/21 06:19:08;;;;;;;;;;;19.20;40.70;;;;;;5036454;28;20317;-58
2024/01/21 06:21:35;;;;;;;;;;;19.20;40.60;;;;;;5033084;28;19982;-55
2024/01/21 06:24:03;;;;;;;;;;;19.20;40.60;;;;;;5033581;28;19929;-58
2024/01/21 06:26:30;;;;;;;;;;;19.20;40.60;;;;;;5064415;28;19920;-58
2024/01/21 06:28:57;;;;;;;;;;;19.20;40.60;;;;;;5052725;28;19928;-56
2024/01/21 06:31:24;;;;;;;;;;;19.20;40.60;;;;;;5037656;28;19921;-56
2024/01/21 06:33:51;;;;;;;;;;;19.20;40.60;;;;;;5071526;28;19920;-57
2024/01/21 06:36:18;;;;;;;;;;;19.20;40.50;;;;;;5070132;28;19921;-57
2024/01/21 06:38:44;;;;;;;;;;;19.20;40.50;;;;;;5054897;28;19921;-58
2024/01/21 06:41:12;;;;;;;;;;;19.20;40.70;;;;;;5033279;28;19920;-55
2024/01/21 06:43:39;;;;;;;;;;;19.20;40.50;;;;;;5050756;28;19924;-57
2024/01/21 06:46:07;;;;;;;;;;;19.20;40.50;;;;;;5070614;28;19924;-57
2024/01/21 06:48:34;;;;;;;;;;;19.20;40.50;;;;;;5070888;28;19920;-57
2024/01/21 06:51:01;;;;;;;;;;;19.20;40.50;;;;;;5051661;28;20244;-54
2024/01/21 06:53:28;;;;;;;;;;;19.20;40.40;;;;;;5056322;28;19921;-55
2024/01/21 06:55:55;;;;;;;;;;;19.20;40.40;;;;;;5074304;28;19932;-56
2024/01/21 06:58:23;;;;;;;;;;;19.20;40.40;;;;;;5056387;28;19920;-57
2024/01/21 07:00:51;;;;;;;;;;;19.20;40.40;;;;;;5068847;28;19928;-57
2024/01/21 07:03:18;;;;;;;;;;;19.20;40.30;;;;;;5072066;28;19924;-57
2024/01/21 07:05:45;;;;;;;;;;;19.20;40.40;;;;;;5056676;28;19924;-58
2024/01/21 07:08:12;;;;;;;;;;;19.20;40.40;;;;;;5056656;28;20011;-55
2024/01/21 07:10:39;;;;;;;;;;;19.20;40.40;;;;;;5062422;28;19920;-56
2024/01/21 07:13:05;;;;;;;;;;;19.20;40.40;;;;;;5074871;28;19921;-57
2024/01/21 07:15:33;;;;;;;;;;;19.20;40.40;;;;;;5074464;28;19942;-57
2024/01/21 07:18:00;;;;;;;;;;;19.20;40.40;;;;;;5074849;28;19920;-55
2024/01/21 07:20:27;;;;;;;;;;;19.20;40.40;;;;;;5074354;28;19920;-57
2024/01/21 07:22:55;;;;;;;;;;;19.20;40.40;;;;;;5053887;28;19929;-57
2024/01/21 07:25:22;;;;;;;;;;;19.20;40.40;;;;;;5073846;28;19957;-58
2024/01/21 07:27:49;;;;;;;;;;;19.20;40.50;;;;;;5074174;28;19933;-56
2024/01/21 07:30:17;;;;;;;;;;;19.20;40.50;;;;;;5067017;28;19924;-58
2024/01/21 07:32:45;;;;;;;;;;;19.20;40.50;;;;;;5053455;28;19928;-59
2024/01/21 07:35:12;;;;;;;;;;;19.20;40.50;;;;;;5054991;28;19932;-54
2024/01/21 07:37:39;;;;;;;;;;;19.20;40.50;;;;;;5054275;28;19920;-58
2024/01/21 07:40:06;;;;;;;;;;;19.20;40.50;;;;;;5056417;28;19928;-57
2024/01/21 07:42:33;;;;;;;;;;;19.20;40.60;;;;;;5052726;28;19920;-57
2024/01/21 07:45:00;;;;;;;;;;;19.20;40.60;;;;;;5070143;28;19920;-58
2024/01/21 07:47:26;;;;;;;;;;;19.20;40.60;;;;;;5070223;28;19927;-59
2024/01/21 07:49:55;;;;;;;;;;;19.20;40.60;;;;;;5068147;28;19920;-56
2024/01/21 07:52:22;;;;;;;;;;;19.20;40.60;;;;;;5053981;28;19920;-56
2024/01/21 07:54:52;;;;;;;;;;;19.20;40.60;;;;;;5050659;28;19943;-57
2024/01/21 07:57:18;;;;;;;;;;;19.20;40.60;;;;;;5056894;28;20270;-57
2024/01/21 07:59:45;;;;;;;;;;;19.20;40.60;;;;;;5050316;28;19974;-58
2024/01/21 08:02:12;;;;;;;;;;;19.20;40.60;;;;;;5063787;28;19924;-56
2024/01/21 08:04:39;;;;;;;;;;;19.20;40.70;;;;;;5034778;28;19927;-57
2024/01/21 08:07:08;;;;;;;;;;;19.20;40.70;;;;;;5056820;28;19977;-59
2024/01/21 08:09:35;;;;;;;;;;;19.20;40.70;;;;;;5047535;28;19978;-59
2024/01/21 08:12:02;;;;;;;;;;;19.20;40.60;;;;;;5050509;28;19931;-58
2024/01/21 08:14:30;;;;;;;;;;;19.20;40.60;;;;;;5049571;28;19933;-56
2024/01/21 08:16:57;;;;;;;;;;;19.20;40.60;;;;;;5065405;28;19933;-58
2024/01/21 08:19:23;;;;;;;;;;;19.20;40.60;;;;;;5048400;28;19929;-56
2024/01/21 08:21:50;;;;;;;;;;;19.20;40.60;;;;;;5069301;28;19939;-59
2024/01/21 08:24:18;;;;;;;;;;;19.20;40.60;;;;;;5056253;28;19997;-53
2024/01/21 08:26:45;;;;;;;;;;;19.20;40.60;;;;;;5066162;28;19924;-56
2024/01/21 08:29:12;;;;;;;;;;;19.20;40.50;;;;;;5070865;28;19924;-58
2024/01/21 08:31:42;;;;;;;;;;;19.20;40.50;;;;;;5046594;28;19964;-57
2024/01/21 08:34:09;;;;;;;;;;;19.20;40.50;;;;;;5051261;28;20012;-56
2024/01/21 08:36:36;;;;;;;;;;;19.20;40.40;;;;;;5056304;28;19924;-53
2024/01/21 08:39:05;;;;;;;;;;;19.20;40.40;;;;;;5071868;28;19927;-55
2024/01/21 08:41:37;;;;;;;;;;;19.20;40.40;;;;;;5070532;28;19928;-58
2024/01/21 08:44:04;;;;;;;;;;;19.20;40.40;;;;;;5054386;28;19925;-59
2024/01/21 08:46:31;;;;;;;;;;;19.20;40.40;;;;;;5047407;28;19982;-57
2024/01/21 08:48:58;;;;;;;;;;;19.20;40.40;;;;;;5057478;28;19921;-57
2024/01/21 08:51:25;;;;;;;;;;;19.20;40.40;;;;;;5050585;28;19924;-58
2024/01/21 08:53:56;;;;;;;;;;;19.20;40.30;;;;;;5046415;28;19927;-58
2024/01/21 08:56:23;;;;;;;;;;;19.20;40.30;;;;;;5070008;28;19924;-58
2024/01/21 08:58:51;;;;;;;;;;;19.20;40.30;;;;;;5068566;28;19940;-58
2024/01/21 09:01:18;;;;;;;;;;;19.20;40.30;;;;;;5069331;28;19932;-56
2024/01/21 09:03:45;;;;;;;;;;;19.20;40.30;;;;;;5065833;28;19985;-55
2024/01/21 09:06:12;;;;;;;;;;;19.20;40.30;;;;;;5050822;28;19928;-57
2024/01/21 09:08:39;;;;;;;;;;;19.20;40.30;;;;;;5070090;28;19924;-58
2024/01/21 09:11:06;;;;;;;;;;;19.20;40.30;;;;;;5051296;28;19978;-53
2024/01/21 09:13:33;;;;;;;;;;;19.20;40.30;;;;;;5054262;28;19924;-55
2024/01/21 09:16:02;;;;;;;;;;;19.20;40.30;;;;;;5070795;28;19927;-56
2024/01/21 09:18:30;;;;;;;;;;;19.20;40.30;;;;;;5059708;28;20015;-57
2024/01/21 09:20:57;;;;;;;;;;;19.20;40.30;;;;;;5061548;28;19919;-53
2024/01/21 09:23:25;;;;;;;;;;;19.20;40.30;;;;;;5057970;28;19926;-58
2024/01/21 09:25:51;;;;;;;;;;;19.20;40.30;;;;;;5071688;28;19966;-55
2024/01/21 09:28:18;;;;;;;;;;;19.20;40.30;;;;;;5057519;28;19970;-56
2024/01/21 09:30:45;;;;;;;;;;;19.20;40.40;;;;;;5072300;28;19985;-58
2024/01/21 09:33:13;;;;;;;;;;;19.20;40.40;;;;;;5070811;28;20527;-57
2024/01/21 09:35:40;;;;;;;;;;;19.20;40.40;;;;;;5077043;28;19924;-57
2024/01/21 09:38:08;;;;;;;;;;;19.20;40.40;;;;;;5056164;28;19955;-56
2024/01/21 09:40:35;;;;;;;;;;;19.20;40.40;;;;;;5052174;28;19932;-58
2024/01/21 09:43:01;;;;;;;;;;;19.20;40.40;;;;;;5054509;28;19986;-58
2024/01/21 09:45:29;;;;;;;;;;;19.20;40.40;;;;;;5058289;28;19921;-58
2024/01/21 09:47:55;;;;;;;;;;;19.20;40.40;;;;;;5061074;28;19928;-58
2024/01/21 09:50:23;;;;;;;;;;;19.20;40.50;;;;;;5054961;28;19990;-58
2024/01/21 09:52:50;;;;;;;;;;;19.20;40.40;;;;;;5053529;28;19924;-58
2024/01/21 09:55:17;;;;;;;;;;;19.20;40.40;;;;;;5037079;28;19920;-59
2024/01/21 09:57:44;;;;;;;;;;;19.20;40.50;;;;;;5071385;28;19956;-57
2024/01/21 10:00:11;;;;;;;;;;;19.20;40.50;;;;;;5063812;28;19927;-58
2024/01/21 10:02:38;;;;;;;;;;;19.20;40.50;;;;;;5053044;28;19924;-56
2024/01/21 10:05:05;;;;;;;;;;;19.20;40.50;;;;;;5051223;28;19943;-59
2024/01/21 10:07:33;;;;;;;;;;;19.20;40.50;;;;;;5066567;28;19920;-59
2024/01/21 10:09:59;;;;;;;;;;;19.20;40.50;;;;;;5052784;28;19920;-51
2024/01/21 10:12:26;;;;;;;;;;;19.20;38.90;;;;;;5056064;28;20366;-56
2024/01/21 10:14:53;;;;;;;;;;;19.20;28.70;;;;;;5065983;28;19921;-56
2024/01/21 10:17:23;;;;;;;;;;;19.00;28.00;;;;;;5053264;28;19920;-58
2024/01/21 10:19:51;;;;;;;;;;;18.90;30.00;;;;;;5070736;28;19942;-58
2024/01/21 10:22:18;;;;;;;;;;;18.80;31.40;;;;;;5050812;28;19924;-58
2024/01/21 10:24:48;;;;;;;;;;;18.80;32.80;;;;;;5054966;28;19967;-58
2024/01/21 10:27:16;;;;;;;;;;;18.80;33.60;;;;;;5050125;28;19928;-59
2024/01/21 10:29:43;;;;;;;;;;;18.80;34.40;;;;;;5069994;28;19924;-58
2024/01/21 10:32:10;;;;;;;;;;;18.80;35.00;;;;;;5072606;28;19974;-59
2024/01/21 10:34:38;;;;;;;;;;;18.80;35.40;;;;;;5057388;28;20038;-58
2024/01/21 10:37:04;;;;;;;;;;;18.80;35.80;;;;;;5069478;28;19971;-58
2024/01/21 10:39:31;;;;;;;;;;;18.80;36.10;;;;;;5068881;28;19998;-58
2024/01/21 10:42:00;;;;;;;;;;;18.80;36.40;;;;;;5059648;28;19928;-58
2024/01/21 10:44:26;;;;;;;;;;;18.90;36.70;;;;;;5049095;28;19928;-58
2024/01/21 10:46:53;;;;;;;;;;;18.90;36.90;;;;;;5069874;28;19927;-58
2024/01/21 10:49:20;;;;;;;;;;;18.90;37.00;;;;;;5052014;28;19924;-59
2024/01/21 10:51:47;;;;;;;;;;;18.90;37.20;;;;;;5066798;28;19932;-58
2024/01/21 10:54:14;;;;;;;;;;;18.90;37.40;;;;;;5073785;28;19962;-58
2024/01/21 10:56:41;;;;;;;;;;;18.90;37.50;;;;;;5057496;28;19943;-58
2024/01/21 10:59:09;;;;;;;;;;;19.00;37.60;;;;;;5050384;28;19924;-58
2024/01/21 11:01:35;;;;;;;;;;;19.00;37.80;;;;;;5069969;28;19924;-58
2024/01/21 11:04:07;;;;;;;;;;;19.00;37.90;;;;;;5068972;28;19993;-58
2024/01/21 11:06:34;;;;;;;;;;;19.00;37.90;;;;;;5050779;28;19974;-58
2024/01/21 11:09:01;;;;;;;;;;;19.00;38.00;;;;;;5055438;28;20273;-57
2024/01/21 11:11:27;;;;;;;;;;;19.00;38.00;;;;;;5069314;28;19921;-59
2024/01/21 11:13:54;;;;;;;;;;;19.00;38.10;;;;;;5069471;28;19920;-59
2024/01/21 11:16:35;;;;;;;;;;;19.00;38.20;;;;;;5055901;28;19950;-58
2024/01/21 11:19:03;;;;;;;;;;;19.00;38.20;;;;;;5053081;28;19960;-58
2024/01/21 11:21:30;;;;;;;;;;;19.00;38.30;;;;;;5060315;28;19920;-58
2024/01/21 11:24:00;;;;;;;;;;;19.00;38.30;;;;;;5054715;28;19924;-58
2024/01/21 11:26:28;;;;;;;;;;;19.00;38.40;;;;;;5074130;28;19962;-56
2024/01/21 11:28:55;;;;;;;;;;;19.00;38.40;;;;;;5054329;28;19920;-58
2024/01/21 11:31:22;;;;;;;;;;;19.10;38.50;;;;;;5058638;28;19921;-58
2024/01/21 11:34:03;;;;;;;;;;;19.10;38.60;;;;;;5069036;28;19967;-58
2024/01/21 11:36:31;;;;;;;;;;;19.10;38.60;;;;;;5057893;28;19969;-57
2024/01/21 11:38:58;;;;;;;;;;;19.10;38.70;;;;;;5068043;28;19950;-58
2024/01/21 11:41:26;;;;;;;;;;;19.10;38.70;;;;;;5055896;28;19932;-57
2024/01/21 11:43:53;;;;;;;;;;;19.10;38.70;;;;;;5051783;28;19974;-57
2024/01/21 11:46:20;;;;;;;;;;;19.10;38.80;;;;;;5070204;28;19924;-56
2024/01/21 11:48:46;;;;;;;;;;;19.10;38.80;;;;;;5052371;28;19928;-58
2024/01/21 11:51:14;;;;;;;;;;;19.10;38.80;;;;;;5054387;28;19924;-56
2024/01/21 11:53:41;;;;;;;;;;;19.10;38.90;;;;;;5049809;28;19920;-58
2024/01/21 11:56:09;;;;;;;;;;;19.10;38.90;;;;;;5056225;28;20419;-58
2024/01/21 11:58:35;;;;;;;;;;;19.10;38.90;;;;;;5058176;28;20420;-58
2024/01/21 12:01:02;;;;;;;;;;;19.10;38.90;;;;;;5046664;28;19978;-58
2024/01/21 12:03:29;;;;;;;;;;;19.10;39.00;;;;;;5066468;28;20016;-58
2024/01/21 12:05:56;;;;;;;;;;;19.10;39.00;;;;;;5070309;28;19920;-58
2024/01/21 12:08:24;;;;;;;;;;;19.10;39.00;;;;;;5055105;28;19928;-58
2024/01/21 12:10:50;;;;;;;;;;;19.10;39.10;;;;;;5055242;28;19939;-58
2024/01/21 12:13:16;;;;;;;;;;;19.10;39.10;;;;;;5054598;28;20011;-57
2024/01/21 12:15:43;;;;;;;;;;;19.10;39.10;;;;;;5055024;28;20273;-58
2024/01/21 12:18:10;;;;;;;;;;;19.10;39.10;;;;;;5071571;28;20278;-58
2024/01/21 12:20:37;;;;;;;;;;;19.10;39.10;;;;;;5069005;28;19920;-58
2024/01/21 12:23:08;;;;;;;;;;;19.10;39.10;;;;;;5055378;28;19928;-58
2024/01/21 12:25:36;;;;;;;;;;;19.10;39.20;;;;;;5053267;28;19928;-58
2024/01/21 12:28:02;;;;;;;;;;;19.10;39.20;;;;;;5053986;28;19932;-58
2024/01/21 12:30:29;;;;;;;;;;;19.20;39.30;;;;;;5053855;28;19928;-58
2024/01/21 12:32:56;;;;;;;;;;;19.20;39.30;;;;;;5060111;28;20030;-58
2024/01/21 12:35:23;;;;;;;;;;;19.20;39.30;;;;;;5072660;28;19924;-58
2024/01/21 12:37:50;;;;;;;;;;;19.20;39.30;;;;;;5075318;28;19932;-57
2024/01/21 12:40:17;;;;;;;;;;;19.20;39.30;;;;;;5067050;28;19968;-58
2024/01/21 12:42:45;;;;;;;;;;;19.20;39.30;;;;;;5071599;28;19924;-58
2024/01/21 12:45:12;;;;;;;;;;;19.20;39.30;;;;;;5053343;28;19924;-58
2024/01/21 12:47:39;;;;;;;;;;;19.20;39.30;;;;;;5056416;28;19920;-58
2024/01/21 12:50:07;;;;;;;;;;;19.20;39.30;;;;;;5071458;28;20320;-58
2024/01/21 12:52:37;;;;;;;;;;;19.10;39.20;;;;;;5071694;28;19921;-58
2024/01/21 12:55:04;;;;;;;;;;;19.20;39.30;;;;;;5058895;28;19920;-57
2024/01/21 12:57:31;;;;;;;;;;;19.20;39.30;;;;;;5072006;28;19924;-56
2024/01/21 13:00:00;;;;;;;;;;;19.20;39.30;;;;;;5059926;28;19940;-56
2024/01/21 13:02:30;;;;;;;;;;;19.10;39.30;;;;;;5071500;28;19924;-55
2024/01/21 13:04:57;;;;;;;;;;;19.10;39.20;;;;;;5056887;28;19928;-56
2024/01/21 13:07:31;;;;;;;;;;;19.10;39.20;;;;;;5069375;28;19925;-57
2024/01/21 13:09:58;;;;;;;;;;;19.20;39.30;;;;;;5070617;28;19928;-56
2024/01/21 13:12:25;;;;;;;;;;;19.20;39.30;;;;;;5067797;28;19921;-56
2024/01/21 13:14:54;;;;;;;;;;;19.20;39.30;;;;;;5073776;28;19921;-58
2024/01/21 13:17:23;;;;;;;;;;;19.20;39.30;;;;;;5071636;28;19929;-56
2024/01/21 13:19:49;;;;;;;;;;;19.20;40.00;;;;;;5053884;28;19936;-58
2024/01/21 13:22:17;;;;;;;;;;;19.20;39.40;;;;;;5076033;28;20007;-54
2024/01/21 13:24:44;;;;;;;;;;;19.20;39.40;;;;;;5050884;28;19970;-52
2024/01/21 13:27:16;;;;;;;;;;;19.20;39.40;;;;;;5054804;28;19921;-56
2024/01/21 13:32:31;;;;;;;;;;;19.20;39.50;;;;;;5043668;28;20027;-55
2024/01/21 13:34:58;;;;;;;;;;;19.20;39.50;;;;;;5051441;28;19936;-57
2024/01/21 13:37:26;;;;;;;;;;;19.20;39.50;;;;;;5054928;28;19965;-58
2024/01/21 13:39:53;;;;;;;;;;;19.20;39.50;;;;;;5069566;28;19924;-56
2024/01/21 13:42:20;;;;;;;;;;;19.20;39.50;;;;;;5050218;28;19976;-55
2024/01/21 13:44:47;;;;;;;;;;;19.20;39.50;;;;;;5048259;28;19928;-56
2024/01/21 13:47:14;;;;;;;;;;;19.30;39.60;;;;;;5053051;28;19927;-57
2024/01/21 13:49:42;;;;;;;;;;;19.30;39.60;;;;;;5069024;28;19920;-56
2024/01/21 13:52:13;;;;;;;;;;;19.20;39.60;;;;;;5054958;28;19931;-58
2024/01/21 13:54:40;;;;;;;;;;;19.30;39.70;;;;;;5050619;28;19970;-58
2024/01/21 13:57:08;;;;;;;;;;;19.30;39.70;;;;;;5070342;28;19921;-56
2024/01/21 13:59:37;;;;;;;;;;;19.30;39.70;;;;;;5053170;28;20015;-58
2024/01/21 14:02:05;;;;;;;;;;;19.30;39.70;;;;;;5070403;28;19924;-58
2024/01/21 14:04:34;;;;;;;;;;;19.30;39.80;;;;;;5057715;28;19920;-57
2024/01/21 14:07:02;;;;;;;;;;;19.30;39.80;;;;;;5069455;28;19925;-56
2024/01/21 14:09:31;;;;;;;;;;;19.30;39.80;;;;;;5056030;28;19954;-58
2024/01/21 14:11:58;;;;;;;;;;;19.30;39.80;;;;;;5071084;28;19928;-57
2024/01/21 14:14:25;;;;;;;;;;;19.30;39.80;;;;;;5070055;28;19927;-58
2024/01/21 14:16:52;;;;;;;;;;;19.30;39.80;;;;;;5057390;28;19920;-57
2024/01/21 14:19:18;;;;;;;;;;;19.30;39.80;;;;;;5070858;28;19970;-58